Latest Weather Observations for Parafield

IDS60901

Issued at 1:51 pm CST Wednesday 31 August 2016 (issued every 10 minutes, with the page automatically refreshed every 10 minutes)

About weather observations | Map of Adelaide area stations | Latest observations for Adelaide area | Other Formats
Station Details ID: 023013 Name: PARAFIELD AIRPORT Lat: -34.80 Lon: 138.63 Height: 9.5 m
Data from the previous 72 hours. | See also: Recent months at Parafield
Date/Time
CST
Temp
°C
App
Temp
°C
Dew
Point
°C
Rel
Hum
%
Delta-T
°C
Wind Press
QNH
hPa
Press
MSL
hPa
Rain since
9am
mm
Dir  Spd
km/h
Gust
km/h
Spd
kts
Gust
kts
31/01:30pm 17.2 13.4 12.3 73 2.7 WNW 24 32 13 17 1017.3 1017.4 0.0
31/01:00pm 16.5 12.7 12.3 76 2.3 WNW 24 33 13 18 1017.6 1017.7 0.0
31/12:30pm 16.0 11.9 11.6 75 2.4 NW 24 28 13 15 1018.0 1018.1 0.0
31/12:00pm 15.6 12.4 11.8 78 2.1 NW 20 30 11 16 1018.3 1018.4 0.0
31/11:50am 15.4 12.2 11.8 79 1.9 WNW 20 28 11 15 1018.4 1018.5 0.0
31/11:30am 16.1 13.3 13.2 83 1.6 WNW 20 28 11 15 1018.4 1018.5 0.0
31/11:11am 15.2 12.3 12.2 82 1.6 WNW 19 26 10 14 1018.5 1018.6 0.0
31/11:00am 15.1 12.1 12.1 82 1.6 WNW 19 24 10 13 1018.6 1018.7 0.0
31/10:30am 14.8 11.9 12.3 85 1.4 WNW 19 28 10 15 1018.7 1018.8 0.0
31/10:14am 14.5 11.3 11.8 84 1.5 NW 20 28 11 15 1018.6 1018.7 0.0
31/10:00am 14.6 11.2 12.5 87 1.1 NW 22 32 12 17 1018.6 1018.7 0.0
31/09:49am 14.6 11.2 12.5 87 1.1 NW 22 30 12 16 1018.6 1018.7 0.0
31/09:30am 14.1 10.7 12.5 90 0.9 NW 22 30 12 16 1018.6 1018.7 0.0
31/09:29am 14.1 10.3 12.5 90 0.9 WNW 24 30 13 16 1018.6 1018.7 0.0
31/09:00am 14.0 11.1 12.2 89 1.0 NW 19 30 10 16 1018.3 1018.4 0.4
31/08:30am 13.2 10.3 12.3 94 0.5 NW 19 24 10 13 1018.1 1018.2 0.4
31/08:00am 12.6 11.3 12.6 100 0.0 NNW 11 15 6 8 1017.8 1017.9 0.4
31/07:30am 12.0 10.5 12.0 100 0.0 NNW 11 13 6 7 1017.4 1017.5 0.4
31/07:00am 11.9 10.4 11.9 100 0.0 NNW 11 17 6 9 1017.1 1017.2 0.4
31/06:30am 11.8 10.2 11.6 99 0.1 NNW 11 17 6 9 1016.6 1016.7 0.4
31/06:19am 12.5 10.8 12.5 100 0.0 NW 13 17 7 9 1016.4 1016.4 0.4
31/06:00am 12.7 10.7 12.7 100 0.0 WNW 15 17 8 9 1016.2 1016.2 0.4
31/05:30am 12.5 10.4 12.3 99 0.1 WNW 15 19 8 10 1015.8 1015.8 0.4
31/05:00am 12.6 10.5 12.4 99 0.1 WNW 15 19 8 10 1015.5 1015.5 0.4
31/04:30am 12.6 10.2 12.6 100 0.0 WNW 17 24 9 13 1015.4 1015.4 0.4
31/04:19am 12.6 10.2 12.6 100 0.0 WNW 17 24 9 13 1015.3 1015.3 0.4
31/04:02am 12.6 9.8 12.6 100 0.0 WNW 19 24 10 13 1015.2 1015.2 0.4
31/04:00am 12.6 10.2 12.6 100 0.0 WNW 17 24 9 13 1015.2 1015.2 0.4
31/03:30am 12.1 9.9 12.1 100 0.0 NNW 15 20 8 11 1015.0 1015.0 0.4
31/03:00am 11.6 10.0 11.6 100 0.0 N 11 15 6 8 1015.0 1015.0 0.4
31/02:30am 11.6 10.0 11.6 100 0.0 N 11 15 6 8 1014.8 1014.8 0.4
31/02:00am 11.5 9.5 11.5 100 0.0 N 13 17 7 9 1014.8 1014.8 0.4
31/01:30am 11.7 10.5 11.7 100 0.0 N 9 11 5 6 1014.9 1014.9 0.4
31/01:00am 10.7 9.2 10.7 100 0.0 NNE 9 11 5 6 1014.8 1014.8 0.4
31/12:53am 10.3 8.7 10.3 100 0.0 NNE 9 11 5 6 1014.8 1014.8 0.4
31/12:30am 10.4 8.9 10.4 100 0.0 N 9 11 5 6 1014.6 1014.6 0.4
31/12:16am 10.3 9.1 10.3 100 0.0 N 7 9 4 5 1014.4 1014.4 0.4
31/12:00am 10.6 9.7 10.6 100 0.0 N 6 9 3 5 1014.3 1014.3 0.2
 
Date/Time
CST
Temp
°C
App
Temp
°C
Dew
Point
°C
Rel
Hum
%
Delta-T
°C
Wind Press
QNH
hPa
Press
MSL
hPa
Rain since
9am
mm
Dir  Spd
km/h
Gust
km/h
Spd
kts
Gust
kts
30/11:37pm 11.1 10.1 11.1 100 0.0 NNW 7 9 4 5 1014.3 1014.3 0.2
30/11:30pm 10.9 9.9 10.9 100 0.0 NNW 7 9 4 5 1014.2 1014.2 0.2
30/11:00pm 11.5 10.3 11.5 100 0.0 N 9 11 5 6 1014.0 1014.0 0.2
30/10:30pm 11.8 10.2 11.6 99 0.1 NNW 11 15 6 8 1014.2 1014.2 0.2
30/10:00pm 11.6 9.6 11.4 99 0.1 N 13 15 7 8 1014.3 1014.3 0.2
30/09:30pm 11.5 10.1 10.9 96 0.3 N 9 11 5 6 1014.0 1014.0 0.2
30/09:00pm 12.6 11.8 11.7 94 0.5 N 7 11 4 6 1013.8 1013.8 0.2
30/08:30pm 13.4 12.3 12.1 92 0.7 NNW 9 13 5 7 1013.5 1013.5 0.2
30/08:00pm 13.6 11.3 11.8 89 1.0 N 15 19 8 10 1013.1 1013.1 0.2
30/07:30pm 14.3 11.4 11.1 81 1.7 NNW 17 20 9 11 1012.7 1012.7 0.0
30/07:00pm 13.4 11.2 10.8 84 1.4 N 13 17 7 9 1012.1 1012.1 0.0
30/06:30pm 13.1 11.2 10.6 85 1.3 NNE 11 13 6 7 1011.4 1011.4 0.0
30/06:00pm 14.7 11.9 11.3 80 1.8 NNE 17 20 9 11 1010.9 1010.9 0.0
30/05:30pm 16.1 11.8 10.8 71 2.8 N 24 30 13 16 1010.4 1010.4 0.0
30/05:00pm 16.2 11.6 10.9 71 2.8 NNW 26 54 14 29 1010.6 1010.6 0.0
30/04:58pm 16.8 13.8 12.7 77 2.3 NW 20 43 11 23 1010.6 1010.6 0.0
30/04:30pm 17.6 16.7 13.7 78 2.2 NW 11 13 6 7 1010.1 1010.1 0.0
30/04:00pm 18.2 16.1 13.5 74 2.7 NW 17 20 9 11 1010.0 1010.0 0.0
30/03:30pm 18.5 16.6 13.1 71 3.0 NW 15 20 8 11 1009.9 1009.9 0.0
30/03:00pm 18.0 15.2 13.3 74 2.7 WNW 20 28 11 15 1010.3 1010.3 0.0
30/02:30pm 18.5 15.1 13.8 74 2.7 WNW 24 35 13 19 1010.4 1010.4 0.0
30/02:00pm 18.7 16.3 14.4 76 2.5 WNW 20 28 11 15 1010.5 1010.5 0.0
30/01:30pm 18.4 15.9 14.1 76 2.5 NW 20 32 11 17 1010.7 1010.7 0.0
30/01:00pm 18.9 16.7 14.4 75 2.6 NNW 19 30 10 16 1011.0 1011.0 0.0
30/12:43pm 18.2 16.0 14.3 78 2.2 NNW 19 26 10 14 1011.3 1011.3 0.0
30/12:30pm 18.0 15.9 15.1 83 1.7 NNW 20 28 11 15 1011.5 1011.5 0.0
30/12:00pm 16.8 15.1 14.6 87 1.3 NW 17 33 9 18 1011.7 1011.7 0.0
30/11:58am 16.9 15.2 14.7 87 1.3 NW 17 33 9 18 1011.7 1011.7 0.0
30/11:44am 16.9 15.9 14.7 87 1.3 NNW 13 19 7 10 1011.8 1011.8 0.0
30/11:30am 16.3 15.3 14.5 89 1.0 NW 13 19 7 10 1011.9 1011.9 0.0
30/11:00am 16.3 15.9 15.2 93 0.6 NNW 11 17 6 9 1012.0 1012.0 0.0
30/10:30am 16.0 15.5 16.0 100 0.0 N 13 17 7 9 1012.1 1012.1 0.0
30/10:00am 15.1 14.3 15.1 100 0.0 N 13 17 7 9 1012.4 1012.4 0.0
30/09:30am 14.4 12.6 14.4 100 0.0 NNE 17 20 9 11 1012.5 1012.5 0.0
30/09:00am 14.0 12.4 14.0 100 0.0 NNE 15 17 8 9 1012.7 1012.7 7.8
30/08:30am 13.5 12.1 13.5 100 0.0 NNE 13 17 7 9 1012.8 1012.8 7.8
30/08:05am 13.3 11.9 13.3 100 0.0 NNE 13 17 7 9 1012.7 1012.7 7.6
30/08:00am 13.2 11.7 13.2 100 0.0 NNE 13 17 7 9 1012.7 1012.7 7.6
30/07:30am 13.0 11.5 13.0 100 0.0 NNE 13 15 7 8 1012.3 1012.3 6.8
30/07:00am 13.0 10.7 13.0 100 0.0 NNE 17 20 9 11 1012.0 1012.0 5.0
30/06:30am 13.0 10.3 13.0 100 0.0 NNE 19 24 10 13 1011.9 1011.9 4.2
30/06:01am 13.2 10.4 12.7 97 0.3 NNE 19 26 10 14 1011.9 1011.9 4.2
30/06:00am 13.3 10.6 12.8 97 0.3 NNE 19 26 10 14 1011.8 1011.8 4.2
30/05:35am 13.1 10.7 12.8 98 0.2 NNE 17 20 9 11 1011.8 1011.8 4.2
30/05:30am 13.1 10.7 12.8 98 0.2 NNE 17 20 9 11 1011.8 1011.8 4.2
30/05:00am 12.9 10.1 12.7 99 0.1 NE 19 24 10 13 1011.3 1011.3 4.2
30/04:46am 12.8 10.4 12.8 100 0.0 NE 17 22 9 12 1011.7 1011.7 4.0
30/04:45am 12.8 10.4 12.8 100 0.0 NE 17 22 9 12 1011.7 1011.7 4.0
30/04:30am 12.7 10.3 12.7 100 0.0 NE 17 22 9 12 1012.0 1012.0 4.0
30/04:15am 12.8 9.9 12.8 100 0.0 NE 20 24 11 13 1012.3 1012.3 4.0
30/04:04am 12.8 10.4 12.8 100 0.0 NE 17 20 9 11 1012.3 1012.3 4.0
30/04:00am 12.8 10.4 12.8 100 0.0 NE 17 20 9 11 1012.2 1012.2 4.0
30/03:30am 12.8 10.7 12.5 98 0.2 NNE 15 20 8 11 1012.6 1012.6 3.6
30/03:22am 12.8 10.7 12.3 97 0.3 NNE 15 20 8 11 1012.6 1012.6 3.4
30/03:02am 12.9 10.3 12.1 95 0.4 NE 17 22 9 12 1012.5 1012.5 2.8
30/03:00am 13.0 10.4 12.1 94 0.5 NE 17 22 9 12 1012.5 1012.5 2.8
30/02:47am 13.0 9.9 12.1 94 0.5 NE 20 28 11 15 1012.6 1012.6 2.8
30/02:30am 13.1 10.1 11.8 92 0.7 NE 19 26 10 14 1012.7 1012.7 2.6
30/02:09am 13.5 10.1 11.2 86 1.2 NNE 20 28 11 15 1013.2 1013.2 2.0
30/02:00am 14.2 10.9 11.0 81 1.7 NNE 19 28 10 15 1013.4 1013.4 1.8
30/01:30am 14.6 11.2 10.6 77 2.1 NNE 19 24 10 13 1013.6 1013.6 1.8
30/01:00am 14.6 12.8 11.0 79 1.9 NE 11 17 6 9 1012.7 1012.7 1.8
30/12:30am 14.6 12.4 10.8 78 2.0 NNE 13 17 7 9 1013.4 1013.4 1.8
30/12:00am 14.4 11.4 10.6 78 2.0 NE 17 20 9 11 1013.3 1013.3 1.8
 
Date/Time
CST
Temp
°C
App
Temp
°C
Dew
Point
°C
Rel
Hum
%
Delta-T
°C
Wind Press
QNH
hPa
Press
MSL
hPa
Rain since
9am
mm
Dir  Spd
km/h
Gust
km/h
Spd
kts
Gust
kts
29/11:30pm 14.7 11.7 10.5 76 2.2 NNE 17 22 9 12 1013.1 1013.1 1.8
29/11:00pm 15.0 10.9 10.2 73 2.5 NNE 22 32 12 17 1013.0 1013.0 1.8
29/10:30pm 15.2 9.0 10.2 72 2.6 NNE 33 43 18 23 1012.9 1012.9 1.8
29/10:00pm 15.3 8.7 10.1 71 2.7 NE 35 54 19 29 1012.9 1012.9 1.8
29/09:57pm 15.2 8.7 10.2 72 2.6 NE 35 54 19 29 1012.8 1012.8 1.8
29/09:30pm 15.4 9.2 10.2 71 2.7 NE 33 46 18 25 1012.3 1012.3 1.8
29/09:00pm 15.6 9.7 10.6 72 2.6 NE 32 46 17 25 1012.0 1012.0 1.8
29/08:30pm 15.5 9.6 10.5 72 2.6 NE 32 39 17 21 1012.3 1012.3 1.8
29/08:13pm 15.4 10.3 10.6 73 2.5 NE 28 46 15 25 1012.9 1012.9 1.8
29/08:00pm 15.7 9.8 10.5 71 2.7 NNE 32 44 17 24 1012.9 1012.9 1.8
29/07:30pm 15.5 10.0 10.7 73 2.5 NE 30 41 16 22 1013.0 1013.0 1.8
29/07:00pm 15.7 10.3 10.9 73 2.6 NE 30 43 16 23 1013.0 1013.0 1.8
29/06:30pm 15.3 10.7 10.9 75 2.3 NE 26 35 14 19 1012.7 1012.7 1.6
29/06:00pm 14.5 10.0 11.5 82 1.6 NE 26 35 14 19 1012.5 1012.5 1.6
29/05:30pm 14.4 8.5 11.2 81 1.7 NE 33 41 18 22 1012.6 1012.6 1.4
29/05:00pm 14.6 8.8 10.8 78 2.0 NE 32 41 17 22 1012.4 1012.4 1.2
29/04:30pm 16.5 11.0 9.2 62 3.8 NE 28 37 15 20 1011.4 1011.4 0.2
29/04:00pm 16.7 11.1 10.1 65 3.5 NE 30 41 16 22 1011.0 1011.0 0.2
29/03:30pm 19.4 12.4 6.2 42 6.6 NE 32 44 17 24 1011.2 1011.2 0.2
29/03:08pm 19.3 12.8 6.4 43 6.4 NE 30 48 16 26 1011.3 1011.3 0.2
29/03:00pm 19.5 12.6 6.6 43 6.5 NE 32 48 17 26 1011.1 1011.1 0.2
29/02:30pm 19.4 13.3 6.8 44 6.3 NE 28 39 15 21 1011.7 1011.7 0.2
29/02:00pm 19.9 12.4 6.3 41 6.8 NNE 35 48 19 26 1011.5 1011.5 0.2
29/01:30pm 21.4 14.2 6.1 37 7.7 NNE 33 50 18 27 1011.7 1011.7 0.2
29/01:29pm 21.6 14.9 7.4 40 7.3 NNE 32 50 17 27 1011.7 1011.7 0.2
29/01:00pm 20.2 13.1 6.2 40 7.0 NNE 33 46 18 25 1012.1 1012.1 0.2
29/12:30pm 21.1 14.4 7.3 41 7.1 NNE 32 41 17 22 1012.8 1012.8 0.2
29/12:00pm 19.2 12.4 6.7 44 6.3 NE 32 41 17 22 1012.9 1012.9 0.2
29/11:30am 18.4 11.3 6.3 45 6.0 NE 33 44 18 24 1013.7 1013.7 0.2
29/11:00am 19.8 13.3 6.5 42 6.7 NNE 30 48 16 26 1014.1 1014.1 0.2
29/10:58am 19.6 12.8 4.9 38 7.1 NNE 30 48 16 26 1014.2 1014.2 0.2
29/10:30am 18.3 12.6 6.8 47 5.7 NE 26 33 14 18 1014.6 1014.6 0.2
29/10:00am 15.7 10.8 8.4 62 3.7 ENE 24 30 13 16 1014.8 1014.8 0.2
29/09:30am 16.1 9.7 5.4 49 5.1 NNE 28 37 15 20 1016.0 1016.0 0.0
29/09:00am 15.5 9.2 5.7 52 4.7 NE 28 35 15 19 1015.9 1015.9 0.2
29/08:30am 15.6 10.2 4.6 48 5.1 NNE 22 28 12 15 1016.2 1016.2 0.2
29/08:00am 16.1 9.5 4.2 45 5.5 NNE 28 37 15 20 1015.8 1015.8 0.2
29/07:30am 15.7 11.0 5.0 49 5.0 NE 19 28 10 15 1015.2 1015.2 0.2
29/07:00am 14.0 9.9 6.4 60 3.6 NE 17 20 9 11 1014.7 1014.7 0.2
29/06:30am 14.4 9.9 7.0 61 3.6 NE 20 28 11 15 1014.8 1014.8 0.2
29/06:00am 14.8 10.7 6.1 56 4.2 NNE 17 22 9 12 1014.6 1014.6 0.2
29/05:30am 14.1 11.4 7.4 64 3.3 NE 11 15 6 8 1014.5 1014.5 0.2
29/05:00am 13.8 10.3 7.3 65 3.2 NE 15 19 8 10 1014.4 1014.4 0.2
29/04:30am 13.7 9.3 7.2 65 3.2 NE 20 28 11 15 1014.3 1014.3 0.2
29/04:00am 12.9 9.1 7.6 70 2.6 NE 17 20 9 11 1014.1 1014.1 0.2
29/03:30am 13.1 8.5 6.7 65 3.1 ENE 20 26 11 14 1014.2 1014.2 0.2
29/03:00am 12.6 8.9 8.1 74 2.2 NE 17 19 9 10 1015.4 1015.4 0.2
29/02:30am 14.4 10.3 6.0 57 4.0 NNE 17 24 9 13 1015.6 1015.6 0.0
29/02:00am 13.8 9.8 6.7 62 3.4 NE 17 22 9 12 1015.5 1015.5 0.0
29/01:30am 13.7 10.2 7.2 65 3.2 NE 15 19 8 10 1015.8 1015.8 0.0
29/01:00am 14.4 9.4 6.3 58 3.9 NNE 22 33 12 18 1015.5 1015.5 0.0
29/12:30am 17.5 10.3 0.6 32 7.4 NNE 28 35 15 19 1015.4 1015.4 0.0
29/12:00am 17.8 11.0 0.9 32 7.5 NNE 26 39 14 21 1015.0 1015.0 0.0
 
Date/Time
CST
Temp
°C
App
Temp
°C
Dew
Point
°C
Rel
Hum
%
Delta-T
°C
Wind Press
QNH
hPa
Press
MSL
hPa
Rain since
9am
mm
Dir  Spd
km/h
Gust
km/h
Spd
kts
Gust
kts
28/11:30pm 18.0 10.4 0.6 31 7.6 NE 30 44 16 24 1014.8 1014.8 0.0
28/11:00pm 17.9 9.8 1.0 32 7.5 NE 33 43 18 23 1014.8 1014.8 0.0
28/10:30pm 17.4 9.6 1.4 34 7.1 NE 32 43 17 23 1015.2 1015.2 0.0
28/10:00pm 17.3 10.3 1.7 35 7.0 NE 28 41 15 22 1015.1 1015.1 0.0
28/09:30pm 17.0 10.4 1.8 36 6.8 NNE 26 35 14 19 1015.0 1015.0 0.0
28/09:00pm 17.8 10.4 1.7 34 7.2 NNE 30 39 16 21 1014.8 1014.8 0.0
28/08:30pm 18.0 11.8 1.9 34 7.3 NE 24 35 13 19 1014.6 1014.6 0.0
28/08:00pm 17.9 12.1 2.2 35 7.1 NNE 22 32 12 17 1014.7 1014.7 0.0
28/07:30pm 17.3 12.0 2.9 38 6.6 NE 20 28 11 15 1014.5 1014.5 0.0
28/07:00pm 17.2 11.9 3.1 39 6.5 NE 20 26 11 14 1014.3 1014.3 0.0
28/06:30pm 17.2 12.2 3.5 40 6.3 NE 19 26 10 14 1014.0 1014.0 0.0
28/06:00pm 17.2 12.0 3.8 41 6.2 NE 20 26 11 14 1013.6 1013.6 0.0
28/05:30pm 18.5 13.3 3.6 37 7.0 NE 20 28 11 15 1013.4 1013.4 0.0
28/05:00pm 19.1 13.3 4.5 38 7.0 NE 24 33 13 18 1013.0 1013.0 0.0
28/04:30pm 19.7 12.3 3.8 35 7.6 NNE 32 41 17 22 1012.9 1012.9 0.0
28/04:00pm 20.7 14.2 4.7 35 7.8 NE 28 43 15 23 1013.1 1013.1 0.0
28/03:30pm 20.9 14.9 5.3 36 7.7 NNE 26 39 14 21 1013.4 1013.4 0.0
28/03:00pm 20.8 13.9 6.4 39 7.3 NNE 32 41 17 22 1013.5 1013.5 0.0
28/02:30pm 21.1 14.8 7.3 41 7.1 NNE 30 39 16 21 1013.7 1013.7 0.0
28/02:00pm 21.1 14.5 5.9 37 7.6 NNE 30 41 16 22 1013.9 1013.9 0.0

Latest Capital City Observations: Canberra | Sydney | Melbourne | Brisbane | Adelaide | Perth | Hobart | Darwin

Other Formats:

Comma delimited format used in spreadsheet applications
http://www.bom.gov.au/fwo/IDS60901/IDS60901.95677.axf

JavaScript Object Notation format (JSON) in row-major order
http://www.bom.gov.au/fwo/IDS60901/IDS60901.95677.json